sensor_id;sensor_type;location;lat;lon;timestamp;P1;durP1;ratioP1;P2;durP2;ratioP2
63217;SDS011;49314;48.278;16.378;2022-12-18T00:01:20;8.13;;;7.63;;
63217;SDS011;49314;48.278;16.378;2022-12-18T00:03:46;5.68;;;5.22;;
63217;SDS011;49314;48.278;16.378;2022-12-18T00:06:11;6.93;;;6.53;;
63217;SDS011;49314;48.278;16.378;2022-12-18T00:08:37;5.45;;;5.15;;
63217;SDS011;49314;48.278;16.378;2022-12-18T00:11:10;6.75;;;6.28;;
63217;SDS011;49314;48.278;16.378;2022-12-18T00:13:36;7.45;;;6.95;;
63217;SDS011;49314;48.278;16.378;2022-12-18T00:16:05;5.85;;;5.45;;
63217;SDS011;49314;48.278;16.378;2022-12-18T00:18:30;6.75;;;6.25;;
63217;SDS011;49314;48.278;16.378;2022-12-18T00:20:58;6.53;;;6.22;;
63217;SDS011;49314;48.278;16.378;2022-12-18T00:23:23;6.80;;;6.40;;
63217;SDS011;49314;48.278;16.378;2022-12-18T00:25:48;6.77;;;6.27;;
63217;SDS011;49314;48.278;16.378;2022-12-18T00:28:14;8.13;;;7.57;;
63217;SDS011;49314;48.278;16.378;2022-12-18T00:30:39;7.23;;;6.73;;
63217;SDS011;49314;48.278;16.378;2022-12-18T00:33:04;7.63;;;7.17;;
63217;SDS011;49314;48.278;16.378;2022-12-18T00:35:29;6.97;;;6.63;;
63217;SDS011;49314;48.278;16.378;2022-12-18T00:37:54;7.13;;;6.67;;
63217;SDS011;49314;48.278;16.378;2022-12-18T00:40:20;5.90;;;5.43;;
63217;SDS011;49314;48.278;16.378;2022-12-18T00:42:45;6.80;;;6.30;;
63217;SDS011;49314;48.278;16.378;2022-12-18T00:45:26;6.43;;;6.03;;
63217;SDS011;49314;48.278;16.378;2022-12-18T00:47:51;7.10;;;6.55;;
63217;SDS011;49314;48.278;16.378;2022-12-18T00:50:17;6.45;;;6.10;;
63217;SDS011;49314;48.278;16.378;2022-12-18T00:52:42;7.18;;;6.78;;
63217;SDS011;49314;48.278;16.378;2022-12-18T00:55:07;6.20;;;5.80;;
63217;SDS011;49314;48.278;16.378;2022-12-18T00:57:33;7.35;;;6.85;;
63217;SDS011;49314;48.278;16.378;2022-12-18T00:59:58;8.40;;;7.90;;
63217;SDS011;49314;48.278;16.378;2022-12-18T01:02:24;6.47;;;6.00;;
63217;SDS011;49314;48.278;16.378;2022-12-18T01:04:49;7.63;;;7.23;;
63217;SDS011;49314;48.278;16.378;2022-12-18T01:07:14;6.43;;;6.03;;
63217;SDS011;49314;48.278;16.378;2022-12-18T01:09:39;6.30;;;5.93;;
63217;SDS011;49314;48.278;16.378;2022-12-18T01:12:05;5.53;;;5.22;;
63217;SDS011;49314;48.278;16.378;2022-12-18T01:14:30;8.07;;;7.55;;
63217;SDS011;49314;48.278;16.378;2022-12-18T01:16:55;6.53;;;6.13;;
63217;SDS011;49314;48.278;16.378;2022-12-18T01:19:20;7.60;;;7.07;;
63217;SDS011;49314;48.278;16.378;2022-12-18T01:21:46;6.77;;;6.27;;
63217;SDS011;49314;48.278;16.378;2022-12-18T01:24:11;7.50;;;7.00;;
63217;SDS011;49314;48.278;16.378;2022-12-18T01:26:37;6.68;;;6.28;;
63217;SDS011;49314;48.278;16.378;2022-12-18T01:29:02;6.20;;;5.80;;
63217;SDS011;49314;48.278;16.378;2022-12-18T01:31:28;6.28;;;5.88;;
63217;SDS011;49314;48.278;16.378;2022-12-18T01:33:55;5.72;;;5.25;;
63217;SDS011;49314;48.278;16.378;2022-12-18T01:36:27;6.35;;;5.95;;
63217;SDS011;49314;48.278;16.378;2022-12-18T01:38:53;3.45;;;3.03;;
63217;SDS011;49314;48.278;16.378;2022-12-18T01:41:21;6.30;;;5.80;;
63217;SDS011;49314;48.278;16.378;2022-12-18T01:46:11;5.67;;;5.27;;
63217;SDS011;49314;48.278;16.378;2022-12-18T01:48:37;7.65;;;7.25;;
63217;SDS011;49314;48.278;16.378;2022-12-18T01:51:04;7.35;;;6.82;;
63217;SDS011;49314;48.278;16.378;2022-12-18T01:53:29;7.22;;;6.75;;
63217;SDS011;49314;48.278;16.378;2022-12-18T01:55:55;6.93;;;6.53;;
63217;SDS011;49314;48.278;16.378;2022-12-18T01:58:44;7.18;;;6.70;;
63217;SDS011;49314;48.278;16.378;2022-12-18T02:01:06;6.15;;;5.75;;
63217;SDS011;49314;48.278;16.378;2022-12-18T02:03:31;7.27;;;6.87;;
63217;SDS011;49314;48.278;16.378;2022-12-18T02:13:49;6.93;;;6.53;;
63217;SDS011;49314;48.278;16.378;2022-12-18T02:16:24;6.18;;;5.78;;
63217;SDS011;49314;48.278;16.378;2022-12-18T02:18:52;6.50;;;6.00;;
63217;SDS011;49314;48.278;16.378;2022-12-18T02:23:59;7.80;;;7.40;;
63217;SDS011;49314;48.278;16.378;2022-12-18T02:29:04;7.60;;;7.18;;
63217;SDS011;49314;48.278;16.378;2022-12-18T02:31:31;6.63;;;6.22;;
63217;SDS011;49314;48.278;16.378;2022-12-18T02:34:01;7.38;;;6.97;;
63217;SDS011;49314;48.278;16.378;2022-12-18T02:36:27;7.35;;;6.95;;
63217;SDS011;49314;48.278;16.378;2022-12-18T02:38:53;7.40;;;6.97;;
63217;SDS011;49314;48.278;16.378;2022-12-18T02:41:19;7.00;;;6.53;;
63217;SDS011;49314;48.278;16.378;2022-12-18T02:43:50;7.03;;;6.63;;
63217;SDS011;49314;48.278;16.378;2022-12-18T02:46:32;5.20;;;4.90;;
63217;SDS011;49314;48.278;16.378;2022-12-18T02:49:20;7.57;;;7.13;;
63217;SDS011;49314;48.278;16.378;2022-12-18T02:51:53;7.03;;;6.53;;
63217;SDS011;49314;48.278;16.378;2022-12-18T02:54:26;7.25;;;6.88;;
63217;SDS011;49314;48.278;16.378;2022-12-18T02:56:56;7.10;;;6.65;;
63217;SDS011;49314;48.278;16.378;2022-12-18T02:59:34;7.50;;;7.10;;
63217;SDS011;49314;48.278;16.378;2022-12-18T03:02:08;6.60;;;6.20;;
63217;SDS011;49314;48.278;16.378;2022-12-18T03:04:43;8.02;;;7.53;;
63217;SDS011;49314;48.278;16.378;2022-12-18T03:07:10;6.35;;;5.93;;
63217;SDS011;49314;48.278;16.378;2022-12-18T03:09:37;5.43;;;5.13;;
63217;SDS011;49314;48.278;16.378;2022-12-18T03:12:09;6.78;;;6.38;;
63217;SDS011;49314;48.278;16.378;2022-12-18T03:14:52;6.45;;;6.15;;
63217;SDS011;49314;48.278;16.378;2022-12-18T03:17:19;6.35;;;5.95;;
63217;SDS011;49314;48.278;16.378;2022-12-18T03:19:45;6.30;;;5.90;;
63217;SDS011;49314;48.278;16.378;2022-12-18T03:22:11;7.30;;;6.80;;
63217;SDS011;49314;48.278;16.378;2022-12-18T03:24:36;6.25;;;5.85;;
63217;SDS011;49314;48.278;16.378;2022-12-18T03:27:05;7.28;;;6.80;;
63217;SDS011;49314;48.278;16.378;2022-12-18T03:29:42;5.57;;;5.25;;
63217;SDS011;49314;48.278;16.378;2022-12-18T03:32:12;7.95;;;7.47;;
63217;SDS011;49314;48.278;16.378;2022-12-18T03:34:40;7.18;;;6.78;;
63217;SDS011;49314;48.278;16.378;2022-12-18T03:37:06;5.95;;;5.65;;
63217;SDS011;49314;48.278;16.378;2022-12-18T03:39:33;5.43;;;5.13;;
63217;SDS011;49314;48.278;16.378;2022-12-18T03:42:03;7.20;;;6.70;;
63217;SDS011;49314;48.278;16.378;2022-12-18T03:44:35;6.13;;;5.75;;
63217;SDS011;49314;48.278;16.378;2022-12-18T03:49:45;6.80;;;6.30;;
63217;SDS011;49314;48.278;16.378;2022-12-18T03:52:17;6.57;;;6.18;;
63217;SDS011;49314;48.278;16.378;2022-12-18T03:54:43;7.20;;;6.70;;
63217;SDS011;49314;48.278;16.378;2022-12-18T03:57:11;6.72;;;6.32;;
63217;SDS011;49314;48.278;16.378;2022-12-18T03:59:38;6.88;;;6.45;;
63217;SDS011;49314;48.278;16.378;2022-12-18T04:02:04;7.63;;;7.10;;
63217;SDS011;49314;48.278;16.378;2022-12-18T04:04:30;6.40;;;5.90;;
63217;SDS011;49314;48.278;16.378;2022-12-18T04:06:56;6.22;;;5.90;;
63217;SDS011;49314;48.278;16.378;2022-12-18T04:09:22;7.90;;;7.40;;
63217;SDS011;49314;48.278;16.378;2022-12-18T04:11:47;7.47;;;7.00;;
63217;SDS011;49314;48.278;16.378;2022-12-18T04:14:14;7.00;;;6.60;;
63217;SDS011;49314;48.278;16.378;2022-12-18T04:16:39;7.03;;;6.57;;
63217;SDS011;49314;48.278;16.378;2022-12-18T04:19:04;6.65;;;6.25;;
63217;SDS011;49314;48.278;16.378;2022-12-18T04:21:30;7.50;;;7.00;;
63217;SDS011;49314;48.278;16.378;2022-12-18T04:23:55;5.82;;;5.43;;
63217;SDS011;49314;48.278;16.378;2022-12-18T04:26:20;7.27;;;6.87;;
63217;SDS011;49314;48.278;16.378;2022-12-18T04:28:45;6.55;;;6.07;;
63217;SDS011;49314;48.278;16.378;2022-12-18T04:31:10;7.80;;;7.37;;
63217;SDS011;49314;48.278;16.378;2022-12-18T04:33:36;8.43;;;7.87;;
63217;SDS011;49314;48.278;16.378;2022-12-18T04:36:01;7.97;;;7.50;;
63217;SDS011;49314;48.278;16.378;2022-12-18T04:38:26;7.90;;;7.40;;
63217;SDS011;49314;48.278;16.378;2022-12-18T04:40:51;7.65;;;7.15;;
63217;SDS011;49314;48.278;16.378;2022-12-18T04:43:17;7.43;;;6.93;;
63217;SDS011;49314;48.278;16.378;2022-12-18T04:45:42;7.77;;;7.27;;
63217;SDS011;49314;48.278;16.378;2022-12-18T04:48:07;8.40;;;7.90;;
63217;SDS011;49314;48.278;16.378;2022-12-18T04:50:32;8.55;;;7.97;;
63217;SDS011;49314;48.278;16.378;2022-12-18T04:52:57;6.77;;;6.37;;
63217;SDS011;49314;48.278;16.378;2022-12-18T04:55:26;8.85;;;8.25;;
63217;SDS011;49314;48.278;16.378;2022-12-18T04:57:52;8.32;;;7.72;;
63217;SDS011;49314;48.278;16.378;2022-12-18T05:00:17;6.97;;;6.47;;
63217;SDS011;49314;48.278;16.378;2022-12-18T05:02:42;7.78;;;7.28;;
63217;SDS011;49314;48.278;16.378;2022-12-18T05:05:07;7.97;;;7.47;;
63217;SDS011;49314;48.278;16.378;2022-12-18T05:07:33;8.02;;;7.53;;
63217;SDS011;49314;48.278;16.378;2022-12-18T05:09:58;7.10;;;6.60;;
63217;SDS011;49314;48.278;16.378;2022-12-18T05:12:23;7.53;;;7.03;;
63217;SDS011;49314;48.278;16.378;2022-12-18T05:14:48;7.80;;;7.25;;
63217;SDS011;49314;48.278;16.378;2022-12-18T05:17:14;7.60;;;6.90;;
63217;SDS011;49314;48.278;16.378;2022-12-18T05:19:39;8.60;;;8.07;;
63217;SDS011;49314;48.278;16.378;2022-12-18T05:22:07;8.13;;;7.57;;
63217;SDS011;49314;48.278;16.378;2022-12-18T05:24:33;6.97;;;6.43;;
63217;SDS011;49314;48.278;16.378;2022-12-18T05:26:58;7.93;;;7.35;;
63217;SDS011;49314;48.278;16.378;2022-12-18T05:29:23;8.43;;;7.93;;
63217;SDS011;49314;48.278;16.378;2022-12-18T05:31:49;7.35;;;6.85;;
63217;SDS011;49314;48.278;16.378;2022-12-18T05:34:14;8.13;;;7.53;;
63217;SDS011;49314;48.278;16.378;2022-12-18T05:36:39;7.55;;;7.05;;
63217;SDS011;49314;48.278;16.378;2022-12-18T05:39:04;8.50;;;7.90;;
63217;SDS011;49314;48.278;16.378;2022-12-18T05:41:30;7.70;;;7.15;;
63217;SDS011;49314;48.278;16.378;2022-12-18T05:43:55;8.33;;;7.83;;
63217;SDS011;49314;48.278;16.378;2022-12-18T05:46:20;9.00;;;8.43;;
63217;SDS011;49314;48.278;16.378;2022-12-18T05:48:46;7.97;;;7.35;;
63217;SDS011;49314;48.278;16.378;2022-12-18T05:51:12;8.10;;;7.60;;
63217;SDS011;49314;48.278;16.378;2022-12-18T05:53:38;7.57;;;7.03;;
63217;SDS011;49314;48.278;16.378;2022-12-18T05:56:04;8.05;;;7.63;;
63217;SDS011;49314;48.278;16.378;2022-12-18T05:58:30;9.10;;;8.50;;
63217;SDS011;49314;48.278;16.378;2022-12-18T06:00:55;7.90;;;7.25;;
63217;SDS011;49314;48.278;16.378;2022-12-18T06:03:22;8.13;;;7.53;;
63217;SDS011;49314;48.278;16.378;2022-12-18T06:05:47;8.45;;;7.78;;
63217;SDS011;49314;48.278;16.378;2022-12-18T06:08:12;7.30;;;6.80;;
63217;SDS011;49314;48.278;16.378;2022-12-18T06:10:38;7.45;;;6.95;;
63217;SDS011;49314;48.278;16.378;2022-12-18T06:13:03;8.57;;;8.07;;
63217;SDS011;49314;48.278;16.378;2022-12-18T06:15:29;8.18;;;7.65;;
63217;SDS011;49314;48.278;16.378;2022-12-18T06:17:54;7.97;;;7.47;;
63217;SDS011;49314;48.278;16.378;2022-12-18T06:20:19;7.63;;;7.10;;
63217;SDS011;49314;48.278;16.378;2022-12-18T06:22:45;8.85;;;8.32;;
63217;SDS011;49314;48.278;16.378;2022-12-18T06:25:10;8.70;;;8.20;;
63217;SDS011;49314;48.278;16.378;2022-12-18T06:27:35;7.53;;;7.00;;
63217;SDS011;49314;48.278;16.378;2022-12-18T06:30:00;7.73;;;7.23;;
63217;SDS011;49314;48.278;16.378;2022-12-18T06:32:26;8.00;;;7.50;;
63217;SDS011;49314;48.278;16.378;2022-12-18T06:34:51;6.78;;;6.28;;
63217;SDS011;49314;48.278;16.378;2022-12-18T06:37:17;6.37;;;5.83;;
63217;SDS011;49314;48.278;16.378;2022-12-18T06:39:42;8.38;;;7.88;;
63217;SDS011;49314;48.278;16.378;2022-12-18T06:42:07;8.73;;;8.02;;
63217;SDS011;49314;48.278;16.378;2022-12-18T06:44:32;8.33;;;7.73;;
63217;SDS011;49314;48.278;16.378;2022-12-18T06:46:58;7.37;;;6.87;;
63217;SDS011;49314;48.278;16.378;2022-12-18T06:49:23;6.50;;;5.93;;
63217;SDS011;49314;48.278;16.378;2022-12-18T06:51:49;8.75;;;8.18;;
63217;SDS011;49314;48.278;16.378;2022-12-18T06:54:14;8.70;;;8.10;;
63217;SDS011;49314;48.278;16.378;2022-12-18T06:56:40;8.77;;;8.17;;
63217;SDS011;49314;48.278;16.378;2022-12-18T06:59:05;8.47;;;7.97;;
63217;SDS011;49314;48.278;16.378;2022-12-18T07:01:30;6.80;;;6.33;;
63217;SDS011;49314;48.278;16.378;2022-12-18T07:03:56;8.03;;;7.43;;
63217;SDS011;49314;48.278;16.378;2022-12-18T07:06:22;7.22;;;6.78;;
63217;SDS011;49314;48.278;16.378;2022-12-18T07:08:48;8.20;;;7.60;;
63217;SDS011;49314;48.278;16.378;2022-12-18T07:11:13;8.18;;;7.63;;
63217;SDS011;49314;48.278;16.378;2022-12-18T07:13:39;7.47;;;6.97;;
63217;SDS011;49314;48.278;16.378;2022-12-18T07:16:07;7.30;;;6.80;;
63217;SDS011;49314;48.278;16.378;2022-12-18T07:18:33;7.22;;;6.72;;
63217;SDS011;49314;48.278;16.378;2022-12-18T07:21:02;8.83;;;8.23;;
63217;SDS011;49314;48.278;16.378;2022-12-18T07:23:27;8.90;;;8.40;;
63217;SDS011;49314;48.278;16.378;2022-12-18T07:25:52;8.17;;;7.67;;
63217;SDS011;49314;48.278;16.378;2022-12-18T07:28:17;8.63;;;8.13;;
63217;SDS011;49314;48.278;16.378;2022-12-18T07:30:42;7.73;;;7.23;;
63217;SDS011;49314;48.278;16.378;2022-12-18T07:33:08;6.63;;;6.13;;
63217;SDS011;49314;48.278;16.378;2022-12-18T07:35:33;7.40;;;6.90;;
63217;SDS011;49314;48.278;16.378;2022-12-18T07:38:02;8.57;;;8.05;;
63217;SDS011;49314;48.278;16.378;2022-12-18T07:40:27;7.90;;;7.40;;
63217;SDS011;49314;48.278;16.378;2022-12-18T07:42:52;9.20;;;8.60;;
63217;SDS011;49314;48.278;16.378;2022-12-18T07:45:17;8.70;;;8.10;;
63217;SDS011;49314;48.278;16.378;2022-12-18T07:47:42;8.17;;;7.67;;
63217;SDS011;49314;48.278;16.378;2022-12-18T07:50:08;8.70;;;8.13;;
63217;SDS011;49314;48.278;16.378;2022-12-18T07:52:33;7.60;;;7.15;;
63217;SDS011;49314;48.278;16.378;2022-12-18T07:54:58;7.60;;;7.10;;
63217;SDS011;49314;48.278;16.378;2022-12-18T07:57:23;9.63;;;9.03;;
63217;SDS011;49314;48.278;16.378;2022-12-18T07:59:49;8.53;;;7.97;;
63217;SDS011;49314;48.278;16.378;2022-12-18T08:02:14;7.10;;;6.60;;
63217;SDS011;49314;48.278;16.378;2022-12-18T08:04:39;8.98;;;8.38;;
63217;SDS011;49314;48.278;16.378;2022-12-18T08:07:04;7.40;;;6.93;;
63217;SDS011;49314;48.278;16.378;2022-12-18T08:09:29;8.47;;;7.90;;
63217;SDS011;49314;48.278;16.378;2022-12-18T08:11:55;7.97;;;7.47;;
63217;SDS011;49314;48.278;16.378;2022-12-18T08:14:20;7.22;;;6.63;;
63217;SDS011;49314;48.278;16.378;2022-12-18T08:16:45;8.47;;;7.97;;
63217;SDS011;49314;48.278;16.378;2022-12-18T08:19:10;7.23;;;6.73;;
63217;SDS011;49314;48.278;16.378;2022-12-18T08:21:36;9.43;;;8.73;;
63217;SDS011;49314;48.278;16.378;2022-12-18T08:24:01;8.82;;;8.18;;
63217;SDS011;49314;48.278;16.378;2022-12-18T08:26:29;7.43;;;6.82;;
63217;SDS011;49314;48.278;16.378;2022-12-18T08:28:55;8.20;;;7.60;;
63217;SDS011;49314;48.278;16.378;2022-12-18T08:31:20;7.88;;;7.38;;
63217;SDS011;49314;48.278;16.378;2022-12-18T08:33:47;7.50;;;7.00;;
63217;SDS011;49314;48.278;16.378;2022-12-18T08:36:13;7.95;;;7.45;;
63217;SDS011;49314;48.278;16.378;2022-12-18T08:38:38;8.37;;;7.87;;
63217;SDS011;49314;48.278;16.378;2022-12-18T08:41:04;7.45;;;6.95;;
63217;SDS011;49314;48.278;16.378;2022-12-18T08:43:30;9.05;;;8.45;;
63217;SDS011;49314;48.278;16.378;2022-12-18T08:46:17;8.23;;;7.65;;
63217;SDS011;49314;48.278;16.378;2022-12-18T08:48:43;8.93;;;8.32;;
63217;SDS011;49314;48.278;16.378;2022-12-18T08:51:08;8.70;;;8.20;;
63217;SDS011;49314;48.278;16.378;2022-12-18T08:53:36;6.88;;;6.38;;
63217;SDS011;49314;48.278;16.378;2022-12-18T08:56:02;9.27;;;8.68;;
63217;SDS011;49314;48.278;16.378;2022-12-18T08:58:28;8.43;;;7.93;;
63217;SDS011;49314;48.278;16.378;2022-12-18T09:00:54;9.20;;;8.63;;
63217;SDS011;49314;48.278;16.378;2022-12-18T09:03:19;8.57;;;7.97;;
63217;SDS011;49314;48.278;16.378;2022-12-18T09:05:47;8.25;;;7.70;;
63217;SDS011;49314;48.278;16.378;2022-12-18T09:08:13;7.95;;;7.45;;
63217;SDS011;49314;48.278;16.378;2022-12-18T09:10:41;7.57;;;7.07;;
63217;SDS011;49314;48.278;16.378;2022-12-18T09:13:07;7.95;;;7.45;;
63217;SDS011;49314;48.278;16.378;2022-12-18T09:15:32;8.00;;;7.43;;
63217;SDS011;49314;48.278;16.378;2022-12-18T09:17:57;7.53;;;6.97;;
63217;SDS011;49314;48.278;16.378;2022-12-18T09:20:22;9.17;;;8.47;;
63217;SDS011;49314;48.278;16.378;2022-12-18T09:22:47;7.87;;;7.17;;
63217;SDS011;49314;48.278;16.378;2022-12-18T09:25:13;7.90;;;7.40;;
63217;SDS011;49314;48.278;16.378;2022-12-18T09:27:38;9.02;;;8.43;;
63217;SDS011;49314;48.278;16.378;2022-12-18T09:30:04;7.85;;;7.35;;
63217;SDS011;49314;48.278;16.378;2022-12-18T09:32:29;8.57;;;8.02;;
63217;SDS011;49314;48.278;16.378;2022-12-18T09:34:55;8.53;;;8.03;;
63217;SDS011;49314;48.278;16.378;2022-12-18T09:37:20;9.20;;;8.60;;
63217;SDS011;49314;48.278;16.378;2022-12-18T09:39:45;9.17;;;8.47;;
63217;SDS011;49314;48.278;16.378;2022-12-18T09:42:18;9.10;;;8.50;;
63217;SDS011;49314;48.278;16.378;2022-12-18T09:44:45;8.57;;;7.97;;
63217;SDS011;49314;48.278;16.378;2022-12-18T09:47:35;8.77;;;8.20;;
63217;SDS011;49314;48.278;16.378;2022-12-18T09:50:01;9.48;;;8.88;;
63217;SDS011;49314;48.278;16.378;2022-12-18T09:54:53;8.00;;;7.40;;
63217;SDS011;49314;48.278;16.378;2022-12-18T09:57:20;8.50;;;7.90;;
63217;SDS011;49314;48.278;16.378;2022-12-18T09:59:49;7.15;;;6.65;;
63217;SDS011;49314;48.278;16.378;2022-12-18T10:02:17;9.63;;;9.02;;
63217;SDS011;49314;48.278;16.378;2022-12-18T10:04:43;9.02;;;8.43;;
63217;SDS011;49314;48.278;16.378;2022-12-18T10:07:13;9.35;;;8.82;;
63217;SDS011;49314;48.278;16.378;2022-12-18T10:09:42;9.93;;;9.32;;
63217;SDS011;49314;48.278;16.378;2022-12-18T10:12:19;8.55;;;7.97;;
63217;SDS011;49314;48.278;16.378;2022-12-18T10:17:24;9.07;;;8.48;;
63217;SDS011;49314;48.278;16.378;2022-12-18T10:20:00;8.77;;;8.20;;
63217;SDS011;49314;48.278;16.378;2022-12-18T10:24:57;8.48;;;7.88;;
63217;SDS011;49314;48.278;16.378;2022-12-18T10:27:24;8.98;;;8.30;;
63217;SDS011;49314;48.278;16.378;2022-12-18T10:29:50;9.23;;;8.63;;
63217;SDS011;49314;48.278;16.378;2022-12-18T10:32:17;8.77;;;8.07;;
63217;SDS011;49314;48.278;16.378;2022-12-18T10:34:45;7.95;;;7.45;;
63217;SDS011;49314;48.278;16.378;2022-12-18T10:37:12;9.35;;;8.60;;
63217;SDS011;49314;48.278;16.378;2022-12-18T10:39:39;9.18;;;8.60;;
63217;SDS011;49314;48.278;16.378;2022-12-18T10:42:14;7.07;;;6.50;;
63217;SDS011;49314;48.278;16.378;2022-12-18T10:44:40;9.00;;;8.32;;
63217;SDS011;49314;48.278;16.378;2022-12-18T10:47:06;8.80;;;8.30;;
63217;SDS011;49314;48.278;16.378;2022-12-18T10:49:47;7.55;;;6.95;;
63217;SDS011;49314;48.278;16.378;2022-12-18T10:52:20;9.98;;;9.27;;
63217;SDS011;49314;48.278;16.378;2022-12-18T10:57:29;10.60;;;9.68;;
63217;SDS011;49314;48.278;16.378;2022-12-18T10:59:56;10.07;;;9.00;;
63217;SDS011;49314;48.278;16.378;2022-12-18T11:02:26;10.93;;;10.05;;
63217;SDS011;49314;48.278;16.378;2022-12-18T11:04:52;10.35;;;9.48;;
63217;SDS011;49314;48.278;16.378;2022-12-18T11:07:18;10.75;;;9.85;;
63217;SDS011;49314;48.278;16.378;2022-12-18T11:09:43;12.13;;;11.13;;
63217;SDS011;49314;48.278;16.378;2022-12-18T11:12:15;11.00;;;9.97;;
63217;SDS011;49314;48.278;16.378;2022-12-18T11:17:16;11.83;;;10.57;;
63217;SDS011;49314;48.278;16.378;2022-12-18T11:19:42;11.27;;;10.18;;
63217;SDS011;49314;48.278;16.378;2022-12-18T11:22:20;12.67;;;11.47;;
63217;SDS011;49314;48.278;16.378;2022-12-18T11:27:23;10.73;;;9.90;;
63217;SDS011;49314;48.278;16.378;2022-12-18T11:29:49;10.52;;;9.43;;
63217;SDS011;49314;48.278;16.378;2022-12-18T11:34:44;11.10;;;10.10;;
63217;SDS011;49314;48.278;16.378;2022-12-18T11:37:11;11.10;;;10.18;;
63217;SDS011;49314;48.278;16.378;2022-12-18T11:39:38;10.13;;;9.20;;
63217;SDS011;49314;48.278;16.378;2022-12-18T11:42:05;11.57;;;10.63;;
63217;SDS011;49314;48.278;16.378;2022-12-18T11:50:01;11.82;;;10.80;;
63217;SDS011;49314;48.278;16.378;2022-12-18T11:52:28;10.20;;;9.30;;
63217;SDS011;49314;48.278;16.378;2022-12-18T11:55:00;10.70;;;9.82;;
63217;SDS011;49314;48.278;16.378;2022-12-18T12:07:38;11.15;;;10.25;;
63217;SDS011;49314;48.278;16.378;2022-12-18T12:10:41;9.73;;;8.80;;
63217;SDS011;49314;48.278;16.378;2022-12-18T12:26:11;12.25;;;11.35;;
63217;SDS011;49314;48.278;16.378;2022-12-18T12:31:15;10.48;;;9.68;;
63217;SDS011;49314;48.278;16.378;2022-12-18T12:33:51;10.05;;;9.15;;
63217;SDS011;49314;48.278;16.378;2022-12-18T12:39:06;11.60;;;10.60;;
63217;SDS011;49314;48.278;16.378;2022-12-18T12:41:33;11.15;;;10.25;;
63217;SDS011;49314;48.278;16.378;2022-12-18T12:44:22;12.00;;;10.88;;
63217;SDS011;49314;48.278;16.378;2022-12-18T12:46:49;11.63;;;10.73;;
63217;SDS011;49314;48.278;16.378;2022-12-18T12:49:17;9.32;;;8.63;;
63217;SDS011;49314;48.278;16.378;2022-12-18T12:51:44;9.80;;;9.07;;
63217;SDS011;49314;48.278;16.378;2022-12-18T12:54:15;8.90;;;8.00;;
63217;SDS011;49314;48.278;16.378;2022-12-18T12:56:51;10.10;;;9.30;;
63217;SDS011;49314;48.278;16.378;2022-12-18T12:59:21;9.77;;;8.98;;
63217;SDS011;49314;48.278;16.378;2022-12-18T13:09:31;10.38;;;9.57;;
63217;SDS011;49314;48.278;16.378;2022-12-18T13:12:01;10.65;;;9.85;;
63217;SDS011;49314;48.278;16.378;2022-12-18T13:14:45;10.68;;;9.75;;
63217;SDS011;49314;48.278;16.378;2022-12-18T13:17:43;10.50;;;9.60;;
63217;SDS011;49314;48.278;16.378;2022-12-18T13:20:03;9.52;;;8.73;;
63217;SDS011;49314;48.278;16.378;2022-12-18T13:23:02;10.55;;;9.75;;
63217;SDS011;49314;48.278;16.378;2022-12-18T13:28:11;10.90;;;10.10;;
63217;SDS011;49314;48.278;16.378;2022-12-18T13:30:41;9.65;;;8.93;;
63217;SDS011;49314;48.278;16.378;2022-12-18T13:35:38;10.15;;;9.35;;
63217;SDS011;49314;48.278;16.378;2022-12-18T13:38:18;9.48;;;8.70;;
63217;SDS011;49314;48.278;16.378;2022-12-18T13:48:24;8.80;;;8.00;;
63217;SDS011;49314;48.278;16.378;2022-12-18T13:50:55;8.80;;;8.10;;
63217;SDS011;49314;48.278;16.378;2022-12-18T13:53:23;9.98;;;9.25;;
63217;SDS011;49314;48.278;16.378;2022-12-18T13:55:49;9.95;;;9.25;;
63217;SDS011;49314;48.278;16.378;2022-12-18T13:58:15;10.13;;;9.35;;
63217;SDS011;49314;48.278;16.378;2022-12-18T14:00:41;9.93;;;9.27;;
63217;SDS011;49314;48.278;16.378;2022-12-18T14:03:17;8.85;;;8.10;;
63217;SDS011;49314;48.278;16.378;2022-12-18T14:05:43;9.70;;;8.90;;
63217;SDS011;49314;48.278;16.378;2022-12-18T14:08:13;9.90;;;9.15;;
63217;SDS011;49314;48.278;16.378;2022-12-18T14:10:42;11.52;;;10.63;;
63217;SDS011;49314;48.278;16.378;2022-12-18T14:13:09;11.32;;;10.48;;
63217;SDS011;49314;48.278;16.378;2022-12-18T14:15:36;10.70;;;9.93;;
63217;SDS011;49314;48.278;16.378;2022-12-18T14:20:48;9.23;;;8.52;;
63217;SDS011;49314;48.278;16.378;2022-12-18T14:25:58;12.10;;;11.10;;
63217;SDS011;49314;48.278;16.378;2022-12-18T14:28:23;12.63;;;11.73;;
63217;SDS011;49314;48.278;16.378;2022-12-18T14:30:49;10.98;;;10.07;;
63217;SDS011;49314;48.278;16.378;2022-12-18T14:33:15;12.80;;;11.80;;
63217;SDS011;49314;48.278;16.378;2022-12-18T14:35:42;12.50;;;11.40;;
63217;SDS011;49314;48.278;16.378;2022-12-18T14:38:17;12.93;;;11.98;;
63217;SDS011;49314;48.278;16.378;2022-12-18T14:40:44;11.80;;;10.70;;
63217;SDS011;49314;48.278;16.378;2022-12-18T14:43:10;11.38;;;10.45;;
63217;SDS011;49314;48.278;16.378;2022-12-18T14:45:39;11.55;;;10.57;;
63217;SDS011;49314;48.278;16.378;2022-12-18T14:48:12;13.85;;;12.63;;
63217;SDS011;49314;48.278;16.378;2022-12-18T14:50:39;12.50;;;11.50;;
63217;SDS011;49314;48.278;16.378;2022-12-18T14:53:25;13.00;;;11.90;;
63217;SDS011;49314;48.278;16.378;2022-12-18T14:55:52;12.95;;;11.77;;
63217;SDS011;49314;48.278;16.378;2022-12-18T14:58:18;13.65;;;12.45;;
63217;SDS011;49314;48.278;16.378;2022-12-18T15:00:43;14.07;;;12.77;;
63217;SDS011;49314;48.278;16.378;2022-12-18T15:03:08;12.00;;;10.80;;
63217;SDS011;49314;48.278;16.378;2022-12-18T15:05:34;11.80;;;10.90;;
63217;SDS011;49314;48.278;16.378;2022-12-18T15:08:00;11.38;;;10.38;;
63217;SDS011;49314;48.278;16.378;2022-12-18T15:10:33;13.82;;;12.63;;
63217;SDS011;49314;48.278;16.378;2022-12-18T15:20:31;13.98;;;12.88;;
63217;SDS011;49314;48.278;16.378;2022-12-18T15:22:57;12.48;;;11.48;;
63217;SDS011;49314;48.278;16.378;2022-12-18T15:25:31;13.32;;;12.23;;
63217;SDS011;49314;48.278;16.378;2022-12-18T15:27:57;14.10;;;12.90;;
63217;SDS011;49314;48.278;16.378;2022-12-18T15:30:23;12.43;;;11.32;;
63217;SDS011;49314;48.278;16.378;2022-12-18T15:32:49;12.77;;;11.77;;
63217;SDS011;49314;48.278;16.378;2022-12-18T15:37:39;13.45;;;12.23;;
63217;SDS011;49314;48.278;16.378;2022-12-18T15:40:05;12.70;;;11.60;;
63217;SDS011;49314;48.278;16.378;2022-12-18T15:42:30;13.50;;;12.43;;
63217;SDS011;49314;48.278;16.378;2022-12-18T15:45:14;13.50;;;12.40;;
63217;SDS011;49314;48.278;16.378;2022-12-18T15:47:39;14.83;;;13.63;;
63217;SDS011;49314;48.278;16.378;2022-12-18T15:50:06;12.85;;;11.75;;
63217;SDS011;49314;48.278;16.378;2022-12-18T15:52:32;12.20;;;11.10;;
63217;SDS011;49314;48.278;16.378;2022-12-18T15:55:00;14.30;;;13.00;;
63217;SDS011;49314;48.278;16.378;2022-12-18T15:57:44;12.73;;;11.70;;
63217;SDS011;49314;48.278;16.378;2022-12-18T16:00:11;12.60;;;11.52;;
63217;SDS011;49314;48.278;16.378;2022-12-18T16:02:36;11.52;;;10.52;;
63217;SDS011;49314;48.278;16.378;2022-12-18T16:05:02;15.02;;;13.80;;
63217;SDS011;49314;48.278;16.378;2022-12-18T16:07:27;13.13;;;12.13;;
63217;SDS011;49314;48.278;16.378;2022-12-18T16:09:52;13.57;;;12.47;;
63217;SDS011;49314;48.278;16.378;2022-12-18T16:12:19;11.83;;;10.83;;
63217;SDS011;49314;48.278;16.378;2022-12-18T16:14:45;14.18;;;12.93;;
63217;SDS011;49314;48.278;16.378;2022-12-18T16:17:11;13.68;;;12.52;;